Time;durP1;ratioP1;P1;durP2;ratioP2;P2;SDS_P1;SDS_P2;PMS_P1;PMS_P2;Temp;Humidity;BMP_temperature;BMP_pressure;BME280_temperature;BME280_humidity;BME280_pressure;Samples;Min_cycle;Max_cycle;Signal;HPM_P1;HPM_P2
2022/06/24 00:01:35;;;;;;;0.00;0.00;;;20.60;99.90;;;;;;4972339;28;20023;-74
2022/06/24 00:04:01;;;;;;;0.00;0.00;;;20.80;99.90;;;;;;4974370;28;20028;-73
2022/06/24 00:06:45;;;;;;;0.03;0.03;;;20.90;99.90;;;;;;4974220;28;20362;-73
2022/06/24 00:09:12;;;;;;;0.00;0.00;;;21.10;99.90;;;;;;4968733;28;20579;-73
2022/06/24 00:11:39;;;;;;;0.00;0.00;;;21.20;99.90;;;;;;4969597;28;20373;-73
2022/06/24 00:14:08;;;;;;;0.00;0.00;;;21.20;99.90;;;;;;4969871;28;20035;-72
2022/06/24 00:17:00;;;;;;;0.00;0.00;;;21.20;99.90;;;;;;4974477;28;20023;-72
2022/06/24 00:19:28;;;;;;;0.00;0.00;;;21.30;99.90;;;;;;4971268;28;20053;-73
2022/06/24 00:22:14;;;;;;;0.00;0.00;;;21.30;99.90;;;;;;4972374;28;20051;-73
2022/06/24 00:24:41;;;;;;;0.00;0.00;;;21.30;99.90;;;;;;4973747;28;20029;-72
2022/06/24 00:27:24;;;;;;;0.00;0.00;;;21.30;99.90;;;;;;4972856;28;20029;-73
2022/06/24 00:29:51;;;;;;;0.00;0.00;;;21.40;99.90;;;;;;4957111;28;20037;-74
2022/06/24 00:32:32;;;;;;;0.00;0.00;;;21.40;99.90;;;;;;4972402;28;20070;-73
2022/06/24 00:35:09;;;;;;;0.00;0.00;;;21.60;99.90;;;;;;4975057;28;20109;-73
2022/06/24 00:37:36;;;;;;;0.00;0.00;;;21.80;99.90;;;;;;4970196;28;20038;-73
2022/06/24 00:40:11;;;;;;;0.00;0.00;;;21.80;99.90;;;;;;4971050;28;20576;-73
2022/06/24 00:42:47;;;;;;;0.00;0.00;;;21.70;99.90;;;;;;4967523;28;20139;-73
2022/06/24 00:45:25;;;;;;;0.00;0.00;;;21.40;99.90;;;;;;4973241;28;20046;-73
2022/06/24 00:47:53;;;;;;;0.00;0.00;;;21.30;99.90;;;;;;4972632;28;20050;-73
2022/06/24 00:50:27;;;;;;;0.00;0.00;;;21.60;99.90;;;;;;4972487;28;20026;-73
2022/06/24 00:52:58;;;;;;;0.00;0.00;;;21.40;99.90;;;;;;4979786;28;20030;-74
2022/06/24 00:55:31;;;;;;;0.10;0.10;;;21.50;99.90;;;;;;4971010;28;20700;-74
2022/06/24 00:57:58;;;;;;;0.55;0.50;;;21.40;99.90;;;;;;4974629;28;20073;-73
2022/06/24 01:00:27;;;;;;;0.00;0.00;;;21.70;99.90;;;;;;4973791;28;20030;-73
2022/06/24 01:03:04;;;;;;;5.13;4.78;;;21.40;99.90;;;;;;4971840;28;20498;-74
2022/06/24 01:05:33;;;;;;;0.85;0.65;;;21.70;99.90;;;;;;4972116;28;20057;-73
2022/06/24 01:08:06;;;;;;;2.58;2.47;;;21.90;99.90;;;;;;4974625;28;20033;-74
2022/06/24 01:10:33;;;;;;;31.85;3.20;;;21.80;99.90;;;;;;4972002;28;20476;-73
2022/06/24 01:12:59;;;;;;;0.00;0.00;;;21.90;99.90;;;;;;4975584;28;20456;-73
2022/06/24 01:15:26;;;;;;;1.17;1.08;;;22.00;99.90;;;;;;4978834;28;20374;-74
2022/06/24 01:17:52;;;;;;;0.25;0.15;;;22.10;99.90;;;;;;4974450;28;20031;-73
2022/06/24 01:20:18;;;;;;;0.00;0.00;;;22.40;99.90;;;;;;4986285;28;20446;-74
2022/06/24 01:22:44;;;;;;;0.08;0.08;;;22.30;99.90;;;;;;4991569;28;20172;-73
2022/06/24 01:25:11;;;;;;;0.00;0.00;;;22.50;99.90;;;;;;4969620;28;20023;-73
2022/06/24 01:27:38;;;;;;;0.00;0.00;;;22.70;99.90;;;;;;4972828;28;20030;-74
2022/06/24 01:30:06;;;;;;;0.00;0.00;;;22.80;99.90;;;;;;4971273;28;20023;-75
2022/06/24 01:32:33;;;;;;;0.00;0.00;;;23.00;99.90;;;;;;4973185;28;20089;-74
2022/06/24 01:34:59;;;;;;;0.00;0.00;;;23.00;99.90;;;;;;4971877;28;20074;-73
2022/06/24 01:37:25;;;;;;;0.00;0.00;;;23.40;99.90;;;;;;4972399;28;20026;-73
2022/06/24 01:39:51;;;;;;;0.00;0.00;;;23.30;99.90;;;;;;4977859;28;20065;-74
2022/06/24 01:42:18;;;;;;;0.00;0.00;;;23.50;99.90;;;;;;4974150;28;20034;-75
2022/06/24 01:44:44;;;;;;;10.30;7.95;;;23.70;99.90;;;;;;4968150;28;20102;-75
2022/06/24 01:47:10;;;;;;;0.00;0.00;;;24.00;99.90;;;;;;4969027;28;20106;-75
2022/06/24 01:49:36;;;;;;;0.00;0.00;;;23.80;99.90;;;;;;4974018;28;20042;-74
2022/06/24 01:52:02;;;;;;;0.00;0.00;;;24.00;99.90;;;;;;4968686;28;20031;-75
2022/06/24 01:54:28;;;;;;;0.00;0.00;;;24.10;99.90;;;;;;4977506;28;20035;-74
2022/06/24 01:56:55;;;;;;;0.00;0.00;;;24.00;99.90;;;;;;4983938;28;20057;-74
2022/06/24 01:59:21;;;;;;;0.00;0.00;;;24.00;99.90;;;;;;4973771;28;20026;-74
2022/06/24 02:01:47;;;;;;;1.83;1.83;;;24.30;99.90;;;;;;4971090;28;20015;-75
2022/06/24 02:04:14;;;;;;;0.00;0.00;;;25.00;99.90;;;;;;4972401;28;20026;-74
2022/06/24 02:06:40;;;;;;;0.22;0.22;;;25.80;99.90;;;;;;4978950;28;20104;-74
2022/06/24 02:09:07;;;;;;;0.28;0.28;;;26.70;99.90;;;;;;4972517;28;20034;-73
2022/06/24 02:14:19;;;;;;;0.20;0.20;;;27.70;99.90;;;;;;4972478;28;20420;-73
2022/06/24 02:16:46;;;;;;;0.00;0.00;;;28.10;99.90;;;;;;4971175;28;20045;-73
2022/06/24 02:19:13;;;;;;;0.10;0.10;;;28.20;99.90;;;;;;4968949;28;20054;-74
2022/06/24 02:21:39;;;;;;;0.00;0.00;;;28.50;99.90;;;;;;4969541;28;20054;-73
2022/06/24 02:24:05;;;;;;;0.10;0.10;;;28.80;99.90;;;;;;4970362;28;20026;-72
2022/06/24 02:26:32;;;;;;;3.67;3.38;;;29.10;99.90;;;;;;4970909;28;20031;-73
2022/06/24 02:28:58;;;;;;;0.35;0.35;;;28.90;97.50;;;;;;4966556;28;20442;-73
2022/06/24 02:31:24;;;;;;;0.00;0.00;;;29.00;94.90;;;;;;4971522;28;20103;-75
2022/06/24 02:33:50;;;;;;;0.00;0.00;;;29.10;93.70;;;;;;4965515;28;20037;-73
2022/06/24 02:36:18;;;;;;;0.13;0.10;;;29.60;91.30;;;;;;4968493;28;20034;-73
2022/06/24 02:38:44;;;;;;;0.47;0.47;;;29.30;86.50;;;;;;4967698;28;21464;-73
2022/06/24 02:41:10;;;;;;;0.38;0.38;;;29.60;84.20;;;;;;4967551;28;20046;-74
2022/06/24 02:43:39;;;;;;;0.00;0.00;;;30.60;78.40;;;;;;4969537;28;20026;-73
2022/06/24 02:46:06;;;;;;;0.00;0.00;;;29.60;81.50;;;;;;4970079;28;20385;-74
2022/06/24 02:48:34;;;;;;;0.00;0.00;;;30.00;78.60;;;;;;4962329;28;20029;-73
2022/06/24 02:51:06;;;;;;;0.00;0.00;;;30.30;74.60;;;;;;4948728;28;20047;-73
2022/06/24 02:53:34;;;;;;;0.00;0.00;;;30.00;71.30;;;;;;4964329;28;20074;-74
2022/06/24 02:56:08;;;;;;;0.00;0.00;;;29.90;74.40;;;;;;4960224;28;20097;-76
2022/06/24 02:58:35;;;;;;;0.05;0.05;;;30.00;71.30;;;;;;4960022;28;20065;-74
2022/06/24 03:01:02;;;;;;;0.32;0.32;;;29.60;72.90;;;;;;4966317;28;20027;-73
2022/06/24 03:03:31;;;;;;;0.00;0.00;;;29.60;69.50;;;;;;4962731;28;20300;-75
2022/06/24 03:06:00;;;;;;;0.00;0.00;;;29.60;71.40;;;;;;4939470;28;20027;-74
2022/06/24 03:08:27;;;;;;;0.00;0.00;;;29.30;71.20;;;;;;4964282;28;20030;-73
2022/06/24 03:10:53;;;;;;;0.00;0.00;;;29.30;69.60;;;;;;4962427;28;20031;-74
2022/06/24 03:13:20;;;;;;;0.00;0.00;;;28.90;69.80;;;;;;4964926;28;20432;-74
2022/06/24 03:15:48;;;;;;;0.00;0.00;;;28.40;76.60;;;;;;4960306;28;20450;-74
2022/06/24 03:18:15;;;;;;;0.00;0.00;;;28.10;79.20;;;;;;4963806;28;20035;-75
2022/06/24 03:20:41;;;;;;;2.05;1.55;;;28.00;81.40;;;;;;4966752;28;20054;-75
2022/06/24 03:23:07;;;;;;;0.00;0.00;;;27.50;90.30;;;;;;4964663;28;20042;-73
2022/06/24 03:25:33;;;;;;;0.10;0.10;;;27.20;94.00;;;;;;4950454;28;20458;-74
2022/06/24 03:28:04;;;;;;;2.17;2.08;;;26.60;99.90;;;;;;4966495;28;20034;-74
2022/06/24 03:30:32;;;;;;;3.83;0.80;;;26.80;99.90;;;;;;4947714;28;20040;-74
2022/06/24 03:32:58;;;;;;;1.95;1.85;;;26.80;99.90;;;;;;4964838;28;20048;-74
2022/06/24 03:35:24;;;;;;;0.52;0.47;;;26.80;99.90;;;;;;4965114;28;20560;-74
2022/06/24 03:37:50;;;;;;;3.03;2.83;;;26.50;99.90;;;;;;4967224;28;20038;-74
2022/06/24 03:40:16;;;;;;;1.17;1.10;;;26.40;99.90;;;;;;4947500;28;20465;-74
2022/06/24 03:42:42;;;;;;;4.18;1.80;;;26.00;99.90;;;;;;4965877;28;20023;-74
2022/06/24 03:45:09;;;;;;;0.22;0.22;;;26.40;99.90;;;;;;4961002;28;20539;-74
2022/06/24 03:47:35;;;;;;;0.43;0.43;;;26.30;99.90;;;;;;4957409;28;20431;-75
2022/06/24 03:50:01;;;;;;;11.60;5.40;;;26.20;99.90;;;;;;4962330;28;20078;-75
2022/06/24 03:52:27;;;;;;;0.75;0.75;;;26.20;99.90;;;;;;4968934;28;20034;-75
2022/06/24 03:54:53;;;;;;;4.10;2.40;;;26.20;99.90;;;;;;4963520;28;20142;-74
2022/06/24 03:57:19;;;;;;;1.80;1.70;;;26.10;99.90;;;;;;4965123;28;20138;-75
2022/06/24 03:59:45;;;;;;;5.47;2.95;;;25.80;99.90;;;;;;4964946;28;20465;-77
2022/06/24 04:02:11;;;;;;;4.35;1.58;;;26.00;99.90;;;;;;4959449;28;20207;-74
2022/06/24 04:04:37;;;;;;;5.97;3.03;;;25.80;99.90;;;;;;4960702;28;20022;-75
2022/06/24 04:07:03;;;;;;;4.47;2.88;;;25.60;99.90;;;;;;4961725;28;20045;-73
2022/06/24 04:09:29;;;;;;;5.47;3.03;;;25.70;99.90;;;;;;4959155;28;20045;-75
2022/06/24 04:11:55;;;;;;;5.15;3.92;;;25.70;99.90;;;;;;4946850;28;20037;-74
2022/06/24 04:17:06;;;;;;;4.60;0.55;;;25.40;99.90;;;;;;4958759;28;20496;-75
2022/06/24 04:19:35;;;;;;;5.78;1.70;;;25.30;99.90;;;;;;4953312;28;20089;-75
2022/06/24 04:22:02;;;;;;;1.48;1.33;;;25.40;99.90;;;;;;4958021;28;20081;-74
2022/06/24 04:24:28;;;;;;;2.78;1.42;;;25.70;99.90;;;;;;4962743;28;20069;-74
2022/06/24 04:26:54;;;;;;;5.43;1.02;;;25.90;99.90;;;;;;4962254;28;20160;-74
2022/06/24 04:29:20;;;;;;;0.55;0.52;;;25.90;99.90;;;;;;4960593;28;20039;-74
2022/06/24 04:31:46;;;;;;;0.30;0.30;;;25.90;99.90;;;;;;4959274;28;20102;-74
2022/06/24 04:34:12;;;;;;;1.58;0.93;;;25.90;99.90;;;;;;4945067;28;20066;-74
2022/06/24 04:36:38;;;;;;;2.28;1.95;;;26.30;99.90;;;;;;4955991;28;20041;-74
2022/06/24 04:39:04;;;;;;;2.80;1.05;;;26.70;99.90;;;;;;4958430;28;20026;-74
2022/06/24 04:41:30;;;;;;;0.28;0.28;;;26.60;99.90;;;;;;4958564;28;20030;-73
2022/06/24 04:43:56;;;;;;;1.02;1.02;;;26.60;99.90;;;;;;4958574;28;20492;-74
2022/06/24 04:46:22;;;;;;;2.15;1.83;;;26.40;99.90;;;;;;4961052;28;20030;-73
2022/06/24 04:48:48;;;;;;;0.55;0.55;;;26.90;99.90;;;;;;4942920;28;20153;-74
2022/06/24 04:51:16;;;;;;;0.30;0.30;;;26.80;99.90;;;;;;4956511;28;20045;-73
2022/06/24 04:53:42;;;;;;;0.82;0.45;;;26.80;99.90;;;;;;4959746;28;20435;-74
2022/06/24 04:56:08;;;;;;;0.35;0.35;;;27.00;99.90;;;;;;4956837;28;20050;-75
2022/06/24 04:58:34;;;;;;;2.05;1.10;;;26.80;99.90;;;;;;4959666;28;20027;-75
2022/06/24 05:01:00;;;;;;;0.00;0.00;;;26.90;99.90;;;;;;4961828;28;20422;-74
2022/06/24 05:03:26;;;;;;;1.75;0.98;;;27.30;99.90;;;;;;4960030;28;20023;-73
2022/06/24 05:05:52;;;;;;;0.03;0.03;;;27.30;99.90;;;;;;4963087;28;20398;-73
2022/06/24 05:08:18;;;;;;;0.20;0.20;;;27.40;99.90;;;;;;4957712;28;20094;-75
2022/06/24 05:10:44;;;;;;;0.00;0.00;;;27.40;99.90;;;;;;4952912;28;20062;-73
2022/06/24 05:13:10;;;;;;;0.00;0.00;;;27.70;99.90;;;;;;4959433;28;20039;-77
2022/06/24 05:15:36;;;;;;;1.45;1.35;;;27.70;99.90;;;;;;4993412;23;20409;-73
2022/06/24 05:18:03;;;;;;;18.10;3.67;;;27.90;99.90;;;;;;5029499;28;20041;-75
2022/06/24 05:20:29;;;;;;;2.45;1.48;;;27.80;99.90;;;;;;5031001;28;20098;-73
2022/06/24 05:22:55;;;;;;;1.77;1.30;;;28.10;99.90;;;;;;5035827;28;20119;-73
2022/06/24 05:25:22;;;;;;;0.00;0.00;;;28.00;99.90;;;;;;5028000;28;20047;-74
2022/06/24 05:27:51;;;;;;;0.00;0.00;;;27.90;99.90;;;;;;5033240;28;20029;-76
2022/06/24 05:30:17;;;;;;;0.00;0.00;;;28.00;99.90;;;;;;5028031;28;20031;-75
2022/06/24 05:32:43;;;;;;;0.00;0.00;;;28.10;99.00;;;;;;5029595;28;20060;-74
2022/06/24 05:35:09;;;;;;;0.00;0.00;;;28.60;99.80;;;;;;5025945;28;20148;-76
2022/06/24 05:37:37;;;;;;;1.58;0.50;;;28.40;96.70;;;;;;5035397;28;20045;-74
2022/06/24 05:40:04;;;;;;;0.00;0.00;;;28.70;92.40;;;;;;5031740;28;20497;-74
2022/06/24 05:42:30;;;;;;;0.00;0.00;;;28.90;85.10;;;;;;5030315;28;20044;-75
2022/06/24 05:44:56;;;;;;;0.85;0.73;;;28.50;80.80;;;;;;5036124;28;20445;-74
2022/06/24 05:47:22;;;;;;;0.95;0.55;;;29.10;76.80;;;;;;5036594;28;20046;-73
2022/06/24 05:49:48;;;;;;;1.92;1.85;;;28.60;78.70;;;;;;5040107;28;20033;-73
2022/06/24 05:52:14;;;;;;;2.72;1.65;;;28.90;79.60;;;;;;5032563;28;20037;-75
2022/06/24 05:57:26;;;;;;;0.00;0.00;;;28.80;82.90;;;;;;5035712;28;20577;-75
2022/06/24 05:59:51;;;;;;;0.03;0.03;;;29.00;73.60;;;;;;5036368;28;20493;-73
2022/06/24 06:02:18;;;;;;;0.00;0.00;;;29.20;74.70;;;;;;5030758;28;20033;-75
2022/06/24 06:04:44;;;;;;;0.00;0.00;;;28.90;75.30;;;;;;5029958;28;20037;-74
2022/06/24 06:07:10;;;;;;;0.00;0.00;;;29.00;76.50;;;;;;5036002;28;20021;-74
2022/06/24 06:09:36;;;;;;;0.00;0.00;;;28.80;77.30;;;;;;5032685;28;20028;-73
2022/06/24 06:12:03;;;;;;;1.65;1.50;;;29.00;77.80;;;;;;5037500;28;20031;-75
2022/06/24 06:14:29;;;;;;;3.10;2.20;;;28.80;79.60;;;;;;5034460;28;20061;-76
2022/06/24 06:16:55;;;;;;;3.83;3.10;;;28.60;82.20;;;;;;5032041;28;20148;-76
2022/06/24 06:19:21;;;;;;;2.28;2.03;;;28.60;88.20;;;;;;5034073;28;20123;-74
2022/06/24 06:21:47;;;;;;;0.10;0.10;;;28.60;84.60;;;;;;5031143;28;20025;-76
2022/06/24 06:24:13;;;;;;;0.22;0.22;;;29.10;83.20;;;;;;5031559;28;21033;-74
2022/06/24 06:26:39;;;;;;;0.10;0.10;;;28.80;85.50;;;;;;5034284;28;20122;-76
2022/06/24 06:29:05;;;;;;;0.47;0.43;;;28.90;86.30;;;;;;5035749;28;20038;-75
2022/06/24 06:31:31;;;;;;;0.05;0.05;;;28.50;84.10;;;;;;5041469;28;20115;-75
2022/06/24 06:33:57;;;;;;;2.13;0.88;;;28.50;80.20;;;;;;5035942;28;20235;-75
2022/06/24 06:36:23;;;;;;;0.25;0.20;;;27.90;80.10;;;;;;5038301;28;20037;-75
2022/06/24 06:38:49;;;;;;;6.30;2.88;;;27.90;81.00;;;;;;5039638;28;20391;-75
2022/06/24 06:41:18;;;;;;;0.43;0.43;;;27.60;81.70;;;;;;5032842;28;20063;-76
2022/06/24 06:43:45;;;;;;;0.03;0.03;;;28.00;82.40;;;;;;5035609;28;20028;-74
2022/06/24 06:46:11;;;;;;;0.00;0.00;;;28.20;80.20;;;;;;5033755;28;20421;-74
2022/06/24 06:48:38;;;;;;;0.38;0.38;;;27.80;79.30;;;;;;5032202;28;20426;-74
2022/06/24 06:51:05;;;;;;;0.20;0.15;;;27.70;79.80;;;;;;5040418;28;20035;-76
2022/06/24 06:53:31;;;;;;;0.60;0.57;;;27.60;76.80;;;;;;5027201;28;20375;-77
2022/06/24 06:55:57;;;;;;;0.47;0.43;;;27.70;80.40;;;;;;5036385;28;20026;-75
2022/06/24 06:58:23;;;;;;;0.10;0.10;;;27.70;79.40;;;;;;5032725;28;20033;-74
2022/06/24 07:00:50;;;;;;;0.35;0.32;;;27.90;81.10;;;;;;5033304;28;20036;-74
2022/06/24 07:03:16;;;;;;;0.20;0.20;;;27.40;77.70;;;;;;5031981;28;20030;-76
2022/06/24 07:05:43;;;;;;;0.05;0.05;;;27.60;74.40;;;;;;5031931;28;20028;-73
2022/06/24 07:08:13;;;;;;;0.00;0.00;;;27.70;74.80;;;;;;5031562;28;20060;-75
2022/06/24 07:10:40;;;;;;;0.00;0.00;;;27.90;74.90;;;;;;5036573;28;20487;-77
2022/06/24 07:13:06;;;;;;;0.73;0.60;;;28.10;71.60;;;;;;5026631;28;20540;-75
2022/06/24 07:15:32;;;;;;;0.75;0.38;;;28.20;72.10;;;;;;5026857;28;20041;-76
2022/06/24 07:17:59;;;;;;;0.30;0.30;;;28.30;69.60;;;;;;5032870;28;20042;-77
2022/06/24 07:20:25;;;;;;;0.15;0.08;;;28.50;73.20;;;;;;5032187;28;20025;-76
2022/06/24 07:22:51;;;;;;;2.85;2.60;;;28.30;70.90;;;;;;5031973;28;20030;-75
2022/06/24 07:25:17;;;;;;;0.00;0.00;;;28.30;72.10;;;;;;5032192;28;20021;-76
2022/06/24 07:27:43;;;;;;;0.00;0.00;;;28.70;71.80;;;;;;5030836;28;20149;-74
2022/06/24 07:30:10;;;;;;;0.20;0.20;;;28.60;69.90;;;;;;5032099;28;20041;-75
2022/06/24 07:33:03;;;;;;;0.00;0.00;;;28.40;68.50;;;;;;5028575;28;20116;-74
2022/06/24 07:35:29;;;;;;;0.73;0.60;;;28.40;69.40;;;;;;5030071;28;20072;-74
2022/06/24 07:37:55;;;;;;;0.00;0.00;;;28.50;68.20;;;;;;5031060;28;20041;-74
2022/06/24 07:40:21;;;;;;;1.98;0.68;;;28.20;69.40;;;;;;5017308;28;20442;-74
2022/06/24 07:42:47;;;;;;;0.05;0.05;;;28.70;70.20;;;;;;5029528;28;20029;-74
2022/06/24 07:45:13;;;;;;;0.00;0.00;;;29.10;65.50;;;;;;5031158;28;20025;-74
2022/06/24 07:47:40;;;;;;;0.00;0.00;;;29.30;62.60;;;;;;5039833;28;20035;-74
2022/06/24 07:50:07;;;;;;;0.10;0.10;;;28.90;64.70;;;;;;5034824;28;20033;-75
2022/06/24 07:52:33;;;;;;;0.00;0.00;;;29.00;67.70;;;;;;5030890;28;20467;-75
2022/06/24 07:57:43;;;;;;;0.00;0.00;;;29.40;67.50;;;;;;5025106;28;20044;-76
2022/06/24 08:00:09;;;;;;;0.00;0.00;;;29.30;62.80;;;;;;5029993;28;20495;-75
2022/06/24 08:02:35;;;;;;;0.10;0.10;;;29.20;64.80;;;;;;5040670;28;20017;-74
2022/06/24 08:05:02;;;;;;;0.00;0.00;;;29.70;65.00;;;;;;5028037;28;20127;-76
2022/06/24 08:07:28;;;;;;;3.05;0.85;;;29.70;59.90;;;;;;5029765;28;20475;-75
2022/06/24 08:09:54;;;;;;;0.00;0.00;;;29.40;61.60;;;;;;5029113;28;20074;-76
2022/06/24 08:12:20;;;;;;;0.00;0.00;;;29.30;62.50;;;;;;5033867;28;20029;-75
2022/06/24 08:14:46;;;;;;;0.00;0.00;;;29.60;61.60;;;;;;5040606;28;20377;-74
2022/06/24 08:17:12;;;;;;;0.00;0.00;;;29.90;61.10;;;;;;5045207;28;20060;-75
2022/06/24 08:19:39;;;;;;;0.30;0.30;;;30.20;59.90;;;;;;5031024;28;20021;-75
2022/06/24 08:22:05;;;;;;;0.00;0.00;;;30.60;60.20;;;;;;5036683;28;20021;-75
2022/06/24 08:24:31;;;;;;;0.10;0.05;;;30.60;58.40;;;;;;5034913;28;20033;-74
2022/06/24 08:26:57;;;;;;;0.00;0.00;;;30.10;58.80;;;;;;5035799;28;20057;-74
2022/06/24 08:29:23;;;;;;;0.10;0.10;;;29.90;58.50;;;;;;5037568;28;20089;-75
2022/06/24 08:31:49;;;;;;;0.00;0.00;;;30.00;59.90;;;;;;5037723;28;20029;-73
2022/06/24 08:34:15;;;;;;;0.00;0.00;;;29.80;59.40;;;;;;5041323;28;20119;-74
2022/06/24 08:36:41;;;;;;;0.50;0.50;;;29.90;60.70;;;;;;5039576;28;20420;-75
2022/06/24 08:39:07;;;;;;;0.00;0.00;;;29.70;60.10;;;;;;5034958;28;20021;-75
2022/06/24 08:41:33;;;;;;;0.00;0.00;;;30.20;60.30;;;;;;5035316;28;20032;-75
2022/06/24 08:44:00;;;;;;;0.00;0.00;;;30.50;58.10;;;;;;5030903;28;20029;-72
2022/06/24 08:46:26;;;;;;;0.00;0.00;;;30.30;59.90;;;;;;5034518;28;20052;-76
2022/06/24 08:48:58;;;;;;;0.10;0.10;;;30.40;58.10;;;;;;5031485;28;20081;-75
2022/06/24 08:51:26;;;;;;;1.15;1.10;;;30.50;59.20;;;;;;5032527;28;20029;-74
2022/06/24 08:53:56;;;;;;;1.10;0.70;;;30.70;57.50;;;;;;5031139;28;20048;-75
2022/06/24 08:56:23;;;;;;;0.10;0.10;;;30.40;59.20;;;;;;5034798;28;20034;-75
2022/06/24 08:58:49;;;;;;;0.20;0.20;;;30.30;59.80;;;;;;5029915;28;20037;-76
2022/06/24 09:01:15;;;;;;;1.17;0.52;;;30.30;59.20;;;;;;5036763;28;20102;-74
2022/06/24 09:03:47;;;;;;;0.00;0.00;;;30.60;59.90;;;;;;5039064;28;20024;-74
2022/06/24 09:06:17;;;;;;;0.10;0.10;;;30.80;59.10;;;;;;5030411;28;20030;-75
2022/06/24 09:08:51;;;;;;;0.00;0.00;;;30.40;59.70;;;;;;5034776;28;20170;-75
2022/06/24 09:11:18;;;;;;;0.08;0.08;;;30.50;58.70;;;;;;5037763;28;20482;-74
2022/06/24 09:14:01;;;;;;;0.00;0.00;;;30.90;57.20;;;;;;5032863;28;20480;-76
2022/06/24 09:16:27;;;;;;;0.98;0.45;;;30.30;59.40;;;;;;4980969;28;1530615;-75
2022/06/24 09:19:00;;;;;;;0.00;0.00;;;30.60;59.10;;;;;;5033776;28;20235;-75
2022/06/24 09:21:28;;;;;;;0.00;0.00;;;30.60;57.80;;;;;;5033168;28;20044;-75
2022/06/24 09:24:05;;;;;;;6.40;3.65;;;30.30;56.80;;;;;;5042180;28;20547;-78
2022/06/24 09:26:32;;;;;;;0.00;0.00;;;30.40;58.60;;;;;;5046167;28;20428;-76
2022/06/24 09:28:59;;;;;;;0.05;0.05;;;30.60;57.00;;;;;;5041587;28;20371;-76
2022/06/24 09:31:27;;;;;;;0.28;0.08;;;30.30;57.40;;;;;;5035958;28;20088;-74
2022/06/24 09:33:53;;;;;;;0.73;0.60;;;30.30;57.40;;;;;;5036191;28;20104;-75
2022/06/24 09:36:25;;;;;;;0.00;0.00;;;30.60;55.90;;;;;;5035424;28;20091;-74
2022/06/24 09:38:56;;;;;;;0.08;0.08;;;30.40;56.10;;;;;;5038216;28;20024;-75
2022/06/24 09:41:23;;;;;;;0.00;0.00;;;30.40;55.30;;;;;;5036158;28;20112;-76
2022/06/24 09:43:51;;;;;;;0.03;0.03;;;30.80;54.60;;;;;;5039672;28;20033;-76
2022/06/24 09:46:23;;;;;;;0.00;0.00;;;30.90;55.50;;;;;;5036263;28;20353;-75
2022/06/24 09:48:57;;;;;;;0.10;0.10;;;30.80;54.90;;;;;;5038410;28;20028;-74
2022/06/24 09:51:23;;;;;;;10.55;4.40;;;31.00;53.00;;;;;;5039850;28;20029;-75
2022/06/24 09:53:51;;;;;;;0.00;0.00;;;31.00;52.20;;;;;;5039505;28;20044;-75
2022/06/24 09:56:21;;;;;;;0.00;0.00;;;30.60;52.90;;;;;;5036507;28;20021;-75
2022/06/24 10:00:40;;;;;;;0.00;0.00;;;30.60;52.30;;;;;;5041201;28;20028;-75
2022/06/24 10:01:35;;;;;;;0.00;0.00;;;30.70;53.10;;;;;;5040994;28;20044;-73
2022/06/24 10:04:05;;;;;;;0.00;0.00;;;30.90;52.40;;;;;;5028904;28;20026;-76
2022/06/24 10:06:34;;;;;;;0.10;0.10;;;31.40;50.60;;;;;;5026440;28;20431;-76
2022/06/24 10:09:04;;;;;;;0.00;0.00;;;31.20;49.30;;;;;;5022883;28;20120;-75
2022/06/24 10:11:34;;;;;;;0.00;0.00;;;31.40;49.20;;;;;;5021161;28;20137;-75
2022/06/24 10:14:01;;;;;;;0.13;0.10;;;31.60;50.60;;;;;;5021480;28;20541;-76
2022/06/24 10:16:27;;;;;;;0.00;0.00;;;32.10;49.20;;;;;;5016788;28;20050;-75
2022/06/24 10:18:54;;;;;;;0.00;0.00;;;31.90;48.00;;;;;;5019864;28;20467;-76
2022/06/24 10:21:21;;;;;;;0.00;0.00;;;31.60;48.40;;;;;;5023533;28;20409;-76
2022/06/24 10:23:47;;;;;;;0.00;0.00;;;31.70;49.60;;;;;;5023776;28;20100;-75
2022/06/24 10:26:18;;;;;;;0.00;0.00;;;31.60;49.90;;;;;;5015981;28;20956;-75
2022/06/24 10:29:05;;;;;;;0.00;0.00;;;30.80;51.00;;;;;;5021331;28;20052;-76
2022/06/24 10:31:49;;;;;;;0.00;0.00;;;30.70;51.80;;;;;;5019438;28;20075;-74
2022/06/24 10:34:30;;;;;;;0.00;0.00;;;30.20;52.40;;;;;;5020530;28;20018;-75
2022/06/24 10:37:24;;;;;;;0.00;0.00;;;30.80;53.20;;;;;;5022491;28;20120;-75
2022/06/24 10:39:58;;;;;;;0.00;0.00;;;31.40;51.90;;;;;;5024755;28;20421;-74
2022/06/24 10:42:25;;;;;;;0.00;0.00;;;32.00;50.80;;;;;;5023309;28;20026;-74
2022/06/24 10:44:58;;;;;;;0.00;0.00;;;32.10;51.50;;;;;;5025188;28;20551;-73
2022/06/24 10:47:38;;;;;;;0.00;0.00;;;31.50;53.60;;;;;;5020064;28;20040;-74
2022/06/24 10:50:06;;;;;;;0.00;0.00;;;31.10;54.90;;;;;;5024875;28;20073;-74
2022/06/24 10:52:55;;;;;;;0.00;0.00;;;31.50;54.40;;;;;;5028857;28;20427;-75
2022/06/24 10:55:23;;;;;;;0.00;0.00;;;31.00;56.00;;;;;;5021795;28;20039;-74
2022/06/24 10:57:52;;;;;;;0.00;0.00;;;30.50;57.50;;;;;;5022376;28;20036;-73
2022/06/24 11:00:39;;;;;;;0.00;0.00;;;30.30;58.50;;;;;;5019930;28;20050;-74
2022/06/24 11:03:05;;;;;;;0.00;0.00;;;30.30;59.50;;;;;;5025386;28;20484;-74
2022/06/24 11:05:42;;;;;;;0.20;0.17;;;30.20;59.70;;;;;;5018663;28;20064;-74
2022/06/24 11:08:14;;;;;;;0.00;0.00;;;29.70;60.00;;;;;;5022009;28;20033;-74
2022/06/24 11:10:41;;;;;;;0.00;0.00;;;29.40;60.80;;;;;;5017990;28;20038;-74
2022/06/24 11:13:08;;;;;;;0.65;0.55;;;29.40;61.50;;;;;;5016898;28;20030;-76
2022/06/24 11:15:39;;;;;;;0.25;0.25;;;29.60;61.80;;;;;;5018462;28;20084;-75
2022/06/24 11:18:15;;;;;;;0.05;0.00;;;29.60;62.90;;;;;;5003168;28;20041;-75
2022/06/24 11:20:43;;;;;;;0.32;0.32;;;29.40;62.50;;;;;;5021847;28;20021;-75
2022/06/24 11:23:11;;;;;;;0.00;0.00;;;29.20;62.40;;;;;;5025456;28;20029;-75
2022/06/24 11:25:49;;;;;;;0.00;0.00;;;29.50;62.70;;;;;;5021403;28;20032;-75
2022/06/24 11:28:26;;;;;;;1.58;1.48;;;30.00;61.70;;;;;;5021239;28;20143;-75
2022/06/24 11:30:54;;;;;;;1.70;0.47;;;30.10;60.30;;;;;;5019687;28;20029;-74
2022/06/24 11:33:21;;;;;;;4.07;3.35;;;29.70;61.00;;;;;;5025858;28;20037;-74
2022/06/24 11:35:49;;;;;;;0.00;0.00;;;29.30;61.30;;;;;;5025181;28;20022;-76
2022/06/24 11:38:19;;;;;;;1.67;1.48;;;29.30;62.10;;;;;;5023388;28;20032;-75
2022/06/24 11:40:46;;;;;;;0.82;0.77;;;29.40;61.70;;;;;;5021530;28;20025;-74
2022/06/24 11:43:13;;;;;;;0.10;0.10;;;29.20;63.00;;;;;;5022964;28;20022;-75
2022/06/24 11:45:42;;;;;;;5.22;4.80;;;29.30;63.70;;;;;;5019667;28;20036;-74
2022/06/24 11:48:10;;;;;;;1.75;1.00;;;29.20;64.70;;;;;;5019825;28;20505;-73
2022/06/24 11:50:39;;;;;;;1.08;0.88;;;29.30;63.50;;;;;;5023301;28;20041;-75
2022/06/24 11:53:07;;;;;;;2.80;2.00;;;29.20;65.40;;;;;;5023931;28;20122;-74
2022/06/24 11:55:38;;;;;;;9.25;3.92;;;29.20;66.10;;;;;;5024978;28;20372;-74
2022/06/24 11:58:06;;;;;;;9.68;2.05;;;28.80;67.60;;;;;;5022775;28;20252;-76
2022/06/24 12:00:36;;;;;;;1.17;1.10;;;28.80;69.10;;;;;;4999724;28;20041;-74
2022/06/24 12:03:05;;;;;;;2.85;1.83;;;28.50;71.00;;;;;;5011092;28;20275;-73
2022/06/24 12:05:32;;;;;;;2.65;0.80;;;28.40;72.70;;;;;;5032024;28;20495;-74
2022/06/24 12:08:00;;;;;;;1.52;1.13;;;28.60;73.90;;;;;;5025448;28;20025;-73
2022/06/24 12:10:27;;;;;;;1.50;0.88;;;28.60;73.60;;;;;;5023006;28;20022;-75
2022/06/24 12:13:05;;;;;;;0.57;0.30;;;28.50;74.10;;;;;;5024912;28;20076;-74
2022/06/24 12:15:37;;;;;;;0.85;0.47;;;28.30;74.80;;;;;;5016897;28;20046;-73
2022/06/24 12:18:17;;;;;;;0.95;0.20;;;28.50;73.10;;;;;;5020284;28;20087;-76
2022/06/24 12:20:43;;;;;;;1.55;0.55;;;28.40;71.40;;;;;;5020326;28;20100;-74
2022/06/24 12:23:35;;;;;;;0.47;0.45;;;28.30;67.80;;;;;;5019929;28;20389;-74
2022/06/24 12:26:14;;;;;;;0.20;0.20;;;27.90;67.70;;;;;;5013631;28;20041;-74
2022/06/24 12:28:41;;;;;;;0.20;0.20;;;27.70;69.10;;;;;;5027503;28;20423;-74
2022/06/24 12:31:08;;;;;;;0.00;0.00;;;27.80;69.10;;;;;;5020488;28;20376;-73
2022/06/24 12:33:47;;;;;;;0.08;0.08;;;27.50;68.60;;;;;;5023027;28;20422;-74
2022/06/24 12:36:18;;;;;;;0.00;0.00;;;27.30;69.80;;;;;;5031650;28;20025;-73
2022/06/24 12:38:56;;;;;;;1.13;0.28;;;27.40;70.20;;;;;;5013377;28;20421;-73
2022/06/24 12:41:25;;;;;;;0.15;0.15;;;27.50;68.40;;;;;;5037904;28;20019;-73
2022/06/24 12:44:00;;;;;;;1.75;0.50;;;27.50;68.50;;;;;;5031066;28;20064;-74
2022/06/24 12:52:38;;;;;;;1.00;0.30;;;27.60;68.40;;;;;;5021699;28;20448;-75
2022/06/24 12:55:07;;;;;;;8.35;7.68;;;27.90;68.00;;;;;;5025201;28;20511;-74
2022/06/24 12:57:34;;;;;;;1.35;1.25;;;27.70;68.60;;;;;;5017713;28;20034;-74
2022/06/24 13:00:03;;;;;;;1.65;1.55;;;27.90;67.60;;;;;;5023032;28;20311;-73
2022/06/24 13:02:30;;;;;;;0.25;0.25;;;28.10;67.40;;;;;;5022825;28;20025;-74
2022/06/24 13:04:57;;;;;;;0.10;0.10;;;28.10;66.90;;;;;;5020998;28;20037;-75
2022/06/24 13:07:23;;;;;;;1.65;0.40;;;27.90;67.50;;;;;;5020111;28;20160;-73
2022/06/24 13:09:49;;;;;;;0.03;0.03;;;28.00;67.90;;;;;;5021314;28;20022;-73